Time;durP1;ratioP1;P1;durP2;ratioP2;P2;SDS_P1;SDS_P2;PMS_P1;PMS_P2;Temp;Humidity;BMP_temperature;BMP_pressure;BME280_temperature;BME280_humidity;BME280_pressure;Samples;Min_cycle;Max_cycle;Signal;HPM_P1;HPM_P2
2022/05/22 00:01:13;;;;;;;3.17;2.80;;;18.70;40.50;;;;;;6171220;23;20149;-86
2022/05/22 00:03:39;;;;;;;3.10;2.80;;;18.70;40.60;;;;;;6195441;23;20142;-86
2022/05/22 00:06:04;;;;;;;2.80;2.50;;;18.70;40.70;;;;;;6195695;23;20146;-86
2022/05/22 00:08:30;;;;;;;3.00;2.70;;;18.70;40.60;;;;;;6220745;23;20141;-86
2022/05/22 00:10:55;;;;;;;2.80;2.60;;;18.70;40.70;;;;;;6220405;23;20126;-86
2022/05/22 00:13:21;;;;;;;3.13;2.83;;;18.70;40.70;;;;;;6246866;23;20130;-86
2022/05/22 00:18:28;;;;;;;3.30;2.80;;;18.70;40.80;;;;;;6247324;23;20705;-86
2022/05/22 00:20:54;;;;;;;2.78;2.55;;;18.60;40.60;;;;;;6195218;23;20177;-86
2022/05/22 00:23:19;;;;;;;2.83;2.60;;;18.60;40.70;;;;;;6247124;23;20161;-86
2022/05/22 00:25:45;;;;;;;3.30;3.00;;;18.60;40.60;;;;;;6247276;23;20180;-86
2022/05/22 00:28:10;;;;;;;3.10;2.80;;;18.60;40.80;;;;;;6220297;23;20125;-86
2022/05/22 00:30:36;;;;;;;3.05;2.75;;;18.70;40.80;;;;;;6220230;23;20161;-86
2022/05/22 00:33:02;;;;;;;3.28;2.83;;;18.60;40.90;;;;;;6220122;23;20165;-86
2022/05/22 00:35:28;;;;;;;2.97;2.67;;;18.70;40.80;;;;;;6219981;23;20177;-86
2022/05/22 00:37:53;;;;;;;3.13;2.75;;;18.70;40.80;;;;;;6214955;23;20742;-86
2022/05/22 00:40:19;;;;;;;3.03;2.72;;;18.60;40.70;;;;;;6214963;23;20157;-86
2022/05/22 00:42:50;;;;;;;3.00;2.70;;;18.60;40.70;;;;;;6190377;23;20130;-86
2022/05/22 00:45:15;;;;;;;3.13;2.80;;;18.60;40.80;;;;;;6190942;23;20225;-86
2022/05/22 00:47:41;;;;;;;2.97;2.60;;;18.60;40.80;;;;;;6190010;23;20127;-87
2022/05/22 00:50:07;;;;;;;3.08;2.78;;;18.60;40.80;;;;;;6165194;23;20217;-86
2022/05/22 00:52:39;;;;;;;3.30;3.00;;;18.60;40.80;;;;;;6190048;23;20130;-86
2022/05/22 00:55:10;;;;;;;3.03;2.70;;;18.60;40.80;;;;;;6190742;23;20197;-86
2022/05/22 00:57:40;;;;;;;3.20;2.90;;;18.60;40.80;;;;;;6165432;23;20152;-86
2022/05/22 01:00:08;;;;;;;3.22;2.85;;;18.60;40.80;;;;;;6165927;23;20207;-86
2022/05/22 01:05:11;;;;;;;3.05;2.75;;;18.60;40.90;;;;;;6192214;23;20134;-86
2022/05/22 01:07:39;;;;;;;2.97;2.67;;;18.60;40.90;;;;;;6214933;23;20137;-86
2022/05/22 01:10:04;;;;;;;2.85;2.65;;;18.60;40.90;;;;;;6216435;23;20555;-87
2022/05/22 01:12:31;;;;;;;2.95;2.70;;;18.60;40.90;;;;;;6189706;23;20209;-86
2022/05/22 01:14:57;;;;;;;2.92;2.63;;;18.60;40.90;;;;;;6189738;23;20488;-87
2022/05/22 01:17:22;;;;;;;3.13;2.83;;;18.70;40.90;;;;;;6216326;23;20172;-86
2022/05/22 01:20:03;;;;;;;2.88;2.58;;;18.60;40.90;;;;;;6214437;23;20177;-86
2022/05/22 01:22:29;;;;;;;2.70;2.50;;;18.60;41.00;;;;;;6214967;23;20138;-86
2022/05/22 01:24:55;;;;;;;3.25;2.30;;;18.60;40.90;;;;;;6189138;23;20164;-86
2022/05/22 01:27:21;;;;;;;3.00;2.70;;;18.60;41.00;;;;;;6189661;23;20161;-86
2022/05/22 01:29:46;;;;;;;3.15;2.85;;;18.60;40.90;;;;;;6189506;23;20173;-86
2022/05/22 01:32:12;;;;;;;3.00;2.70;;;18.60;41.00;;;;;;6189494;23;20144;-86
2022/05/22 01:34:38;;;;;;;3.10;2.80;;;18.60;40.90;;;;;;6189497;23;20154;-86
2022/05/22 01:37:03;;;;;;;2.85;2.58;;;18.60;41.00;;;;;;6232459;23;20663;-86
2022/05/22 01:39:29;;;;;;;3.00;2.70;;;18.60;41.10;;;;;;6219472;23;20144;-86
2022/05/22 01:41:55;;;;;;;2.75;2.53;;;18.50;41.00;;;;;;6247154;23;20209;-86
2022/05/22 01:44:22;;;;;;;3.15;2.85;;;18.60;41.00;;;;;;6219363;23;20129;-86
2022/05/22 01:46:48;;;;;;;3.67;2.90;;;18.60;41.00;;;;;;6169881;23;20152;-86
2022/05/22 01:49:14;;;;;;;2.90;2.60;;;18.50;41.00;;;;;;6194529;23;20133;-86
2022/05/22 01:51:41;;;;;;;2.95;2.65;;;18.60;41.80;;;;;;6194364;23;20514;-86
2022/05/22 01:54:07;;;;;;;3.28;2.97;;;18.60;41.10;;;;;;6195172;23;20157;-86
2022/05/22 01:56:33;;;;;;;2.70;2.50;;;18.60;41.10;;;;;;6194457;23;20161;-86
2022/05/22 01:58:59;;;;;;;3.30;2.75;;;18.60;41.20;;;;;;6169413;23;20611;-86
2022/05/22 02:01:25;;;;;;;3.00;2.70;;;18.60;41.20;;;;;;6194519;23;20129;-86
2022/05/22 02:03:50;;;;;;;2.92;2.70;;;18.60;41.10;;;;;;6194345;23;20130;-86
2022/05/22 02:06:16;;;;;;;2.97;2.65;;;18.60;41.20;;;;;;6194965;23;20153;-86
2022/05/22 02:08:42;;;;;;;2.85;2.53;;;18.60;41.20;;;;;;6246003;23;20560;-86
2022/05/22 02:11:07;;;;;;;3.00;2.70;;;18.60;41.20;;;;;;6194800;23;20141;-86
2022/05/22 02:13:35;;;;;;;2.97;2.70;;;18.60;41.20;;;;;;6219716;23;20179;-86
2022/05/22 02:16:01;;;;;;;3.63;2.70;;;18.60;41.20;;;;;;6194644;23;20158;-87
2022/05/22 02:18:26;;;;;;;3.10;2.78;;;18.60;41.20;;;;;;6169209;23;20141;-87
2022/05/22 02:20:52;;;;;;;2.92;2.47;;;18.60;41.20;;;;;;6219346;23;20138;-86
2022/05/22 02:23:18;;;;;;;3.10;2.80;;;18.60;41.30;;;;;;6219535;23;20183;-86
2022/05/22 02:25:46;;;;;;;2.95;2.53;;;18.60;41.30;;;;;;6194468;23;20199;-86
2022/05/22 02:28:14;;;;;;;3.38;2.63;;;18.60;41.40;;;;;;6169727;23;20633;-86
2022/05/22 02:30:41;;;;;;;2.85;2.55;;;18.60;41.20;;;;;;6194659;23;20129;-86
2022/05/22 02:33:07;;;;;;;2.72;2.53;;;18.50;41.20;;;;;;6194568;23;20130;-86
2022/05/22 02:35:32;;;;;;;2.88;2.60;;;18.60;41.40;;;;;;6219624;23;20171;-86
2022/05/22 02:37:58;;;;;;;2.85;2.60;;;18.60;41.40;;;;;;6248003;23;20524;-87
2022/05/22 02:40:25;;;;;;;2.95;2.65;;;18.60;41.40;;;;;;6197161;23;20149;-86
2022/05/22 02:42:51;;;;;;;3.30;2.65;;;18.50;41.40;;;;;;6171540;23;20153;-87
2022/05/22 02:45:20;;;;;;;3.15;2.85;;;18.60;41.40;;;;;;6196125;23;20180;-86
2022/05/22 02:47:45;;;;;;;3.00;2.70;;;18.60;41.40;;;;;;6196423;23;20126;-86
2022/05/22 02:50:12;;;;;;;3.00;2.70;;;18.60;41.40;;;;;;6221419;23;20130;-86
2022/05/22 02:52:37;;;;;;;2.83;2.53;;;18.60;41.50;;;;;;6196332;23;20149;-86
2022/05/22 02:55:04;;;;;;;2.88;2.55;;;18.50;41.50;;;;;;6221148;23;20553;-86
2022/05/22 02:57:32;;;;;;;2.67;2.40;;;18.50;41.40;;;;;;6171091;23;20566;-86
2022/05/22 02:59:58;;;;;;;3.00;2.70;;;18.50;41.50;;;;;;6171273;23;20155;-86
2022/05/22 03:02:23;;;;;;;3.00;2.50;;;18.60;41.50;;;;;;6221088;23;20522;-86
2022/05/22 03:04:49;;;;;;;2.78;2.58;;;18.60;41.50;;;;;;6172081;23;20244;-87
2022/05/22 03:07:16;;;;;;;3.10;2.80;;;18.60;41.50;;;;;;6196252;23;20141;-86
2022/05/22 03:09:42;;;;;;;3.10;2.80;;;18.50;41.40;;;;;;6171610;23;20203;-86
2022/05/22 03:12:13;;;;;;;2.80;2.60;;;18.50;41.50;;;;;;6196490;23;20275;-86
2022/05/22 03:14:43;;;;;;;2.95;2.60;;;18.60;41.50;;;;;;6196430;23;20133;-86
2022/05/22 03:17:08;;;;;;;3.00;2.70;;;18.60;41.60;;;;;;6220960;23;20551;-86
2022/05/22 03:19:34;;;;;;;3.00;2.70;;;18.60;41.60;;;;;;6195992;23;20634;-85
2022/05/22 03:22:00;;;;;;;2.55;2.35;;;18.50;41.60;;;;;;6195571;23;20152;-86
2022/05/22 03:24:25;;;;;;;3.00;2.70;;;18.60;41.60;;;;;;6221080;23;20652;-86
2022/05/22 03:26:51;;;;;;;2.85;2.60;;;18.50;41.60;;;;;;6195764;23;20220;-86
2022/05/22 03:29:17;;;;;;;3.10;2.80;;;18.60;41.60;;;;;;6171126;23;20175;-86
2022/05/22 03:31:42;;;;;;;3.00;2.70;;;18.50;41.60;;;;;;6220964;23;20207;-86
2022/05/22 03:34:08;;;;;;;2.85;2.55;;;18.50;41.60;;;;;;6247994;23;20141;-86
2022/05/22 03:36:36;;;;;;;2.60;2.40;;;18.50;41.60;;;;;;6215315;23;20202;-86
2022/05/22 03:39:01;;;;;;;3.10;2.80;;;18.50;41.60;;;;;;6191328;23;20150;-86
2022/05/22 03:41:27;;;;;;;2.95;2.65;;;18.50;41.60;;;;;;6215490;23;20150;-86
2022/05/22 03:43:53;;;;;;;2.80;2.60;;;18.50;41.70;;;;;;6215854;23;20558;-87
2022/05/22 03:46:19;;;;;;;3.15;2.60;;;18.50;41.70;;;;;;6215707;23;20198;-87
2022/05/22 03:48:46;;;;;;;3.00;2.70;;;18.50;41.70;;;;;;6216569;23;20570;-86
2022/05/22 03:51:11;;;;;;;2.58;2.38;;;18.50;41.60;;;;;;6215437;23;20133;-86
2022/05/22 03:53:37;;;;;;;3.08;2.78;;;18.60;41.80;;;;;;6215408;23;20184;-86
2022/05/22 03:56:14;;;;;;;2.75;2.55;;;18.50;41.70;;;;;;6215539;23;20193;-86
2022/05/22 03:58:41;;;;;;;2.90;2.60;;;18.50;41.70;;;;;;6215820;23;20141;-86
2022/05/22 04:01:07;;;;;;;3.00;2.70;;;18.50;41.70;;;;;;6166390;23;20142;-86
2022/05/22 04:03:35;;;;;;;2.90;2.60;;;18.50;41.80;;;;;;6215489;23;20142;-86
2022/05/22 04:06:01;;;;;;;2.80;2.60;;;18.50;41.70;;;;;;6190985;23;20181;-86
2022/05/22 04:08:28;;;;;;;3.03;2.67;;;18.50;41.70;;;;;;6165685;23;20573;-86
2022/05/22 04:10:54;;;;;;;2.97;2.67;;;18.50;41.70;;;;;;6215821;23;20154;-87
2022/05/22 04:13:19;;;;;;;2.78;2.58;;;18.50;41.70;;;;;;6190300;23;20138;-86
2022/05/22 04:15:46;;;;;;;3.20;2.90;;;18.40;41.70;;;;;;6216688;23;20174;-87
2022/05/22 04:18:13;;;;;;;2.97;2.67;;;18.50;41.80;;;;;;6216797;23;20568;-86
2022/05/22 04:20:38;;;;;;;3.20;2.90;;;18.50;41.80;;;;;;6190378;23;20153;-86
2022/05/22 04:25:40;;;;;;;3.15;2.67;;;18.50;41.80;;;;;;6215761;23;20189;-86
2022/05/22 04:28:06;;;;;;;3.03;2.72;;;18.50;41.80;;;;;;6189989;23;20520;-87
2022/05/22 04:30:31;;;;;;;2.78;2.55;;;18.50;41.80;;;;;;6215287;23;20149;-86
2022/05/22 04:32:57;;;;;;;3.00;2.70;;;18.50;41.80;;;;;;6190465;23;20556;-86
2022/05/22 04:35:23;;;;;;;2.92;2.63;;;18.50;41.90;;;;;;6214882;23;20209;-87
2022/05/22 04:37:48;;;;;;;2.78;2.47;;;18.50;41.90;;;;;;6214973;23;20209;-86
2022/05/22 04:40:14;;;;;;;2.80;2.50;;;18.50;41.80;;;;;;6214868;23;20154;-86
2022/05/22 04:42:40;;;;;;;3.10;2.50;;;18.50;41.90;;;;;;6189955;23;20561;-86
2022/05/22 04:45:06;;;;;;;3.08;2.78;;;18.50;41.90;;;;;;6165282;23;20150;-86
2022/05/22 04:47:36;;;;;;;2.63;2.40;;;18.50;41.90;;;;;;6165173;23;20153;-87
2022/05/22 04:50:01;;;;;;;3.05;2.75;;;18.50;42.00;;;;;;6189792;23;20157;-86
2022/05/22 04:52:27;;;;;;;2.65;2.45;;;18.50;41.90;;;;;;6189865;23;20142;-86
2022/05/22 04:54:53;;;;;;;3.20;2.58;;;18.50;41.90;;;;;;6165029;23;20146;-86
2022/05/22 04:57:19;;;;;;;2.90;2.53;;;18.60;41.80;;;;;;6215009;23;20170;-86
2022/05/22 04:59:44;;;;;;;2.97;2.33;;;18.60;41.90;;;;;;6215634;23;20137;-86
2022/05/22 05:02:10;;;;;;;2.72;2.53;;;18.50;41.90;;;;;;6216500;23;20138;-86
2022/05/22 05:04:35;;;;;;;3.15;2.70;;;18.50;41.90;;;;;;6215029;23;20194;-86
2022/05/22 05:07:08;;;;;;;2.90;2.60;;;18.50;41.90;;;;;;6214624;23;20149;-86
2022/05/22 05:09:35;;;;;;;3.17;2.88;;;18.50;42.00;;;;;;6165222;23;20150;-86
2022/05/22 05:12:01;;;;;;;3.10;2.80;;;18.50;42.00;;;;;;6189541;23;20506;-86
2022/05/22 05:14:27;;;;;;;2.80;2.60;;;18.50;42.00;;;;;;6189694;23;20131;-86
2022/05/22 05:16:52;;;;;;;2.90;2.50;;;18.50;42.10;;;;;;6165777;23;20169;-86
2022/05/22 05:19:18;;;;;;;3.60;2.80;;;18.50;42.10;;;;;;6189605;23;20545;-86
2022/05/22 05:21:44;;;;;;;3.03;2.72;;;18.50;42.00;;;;;;6190054;23;20221;-86
2022/05/22 05:24:09;;;;;;;2.70;2.40;;;18.50;42.00;;;;;;6164620;23;20232;-86
2022/05/22 05:26:35;;;;;;;2.72;2.53;;;18.50;42.10;;;;;;6190027;23;20138;-86
2022/05/22 05:29:01;;;;;;;3.50;2.65;;;18.50;42.00;;;;;;6164927;23;20138;-86
2022/05/22 05:31:27;;;;;;;2.85;2.58;;;18.60;42.10;;;;;;6190180;23;20218;-86
2022/05/22 05:33:53;;;;;;;2.75;2.50;;;18.50;42.00;;;;;;6215052;23;20126;-86
2022/05/22 05:36:18;;;;;;;2.63;2.42;;;18.50;42.00;;;;;;6222654;23;20254;-86
2022/05/22 05:38:44;;;;;;;2.90;2.60;;;18.50;42.00;;;;;;6246320;23;20141;-86
2022/05/22 05:41:10;;;;;;;2.97;2.67;;;18.50;42.10;;;;;;6219294;23;20211;-86
2022/05/22 05:43:37;;;;;;;2.78;2.58;;;18.50;42.10;;;;;;6219808;23;20137;-86
2022/05/22 05:46:03;;;;;;;3.10;2.80;;;18.50;42.00;;;;;;6194564;23;20453;-86
2022/05/22 05:48:28;;;;;;;2.55;2.35;;;18.50;42.10;;;;;;6169950;23;20195;-86
2022/05/22 05:50:55;;;;;;;3.13;2.83;;;18.50;42.10;;;;;;6219625;23;20132;-86
2022/05/22 05:53:21;;;;;;;3.00;2.55;;;18.50;42.10;;;;;;6220456;23;20223;-86
2022/05/22 05:55:48;;;;;;;2.97;2.67;;;18.50;42.10;;;;;;6169673;23;20612;-86
2022/05/22 05:58:13;;;;;;;2.80;2.45;;;18.50;42.10;;;;;;6194461;23;20141;-86
2022/05/22 06:00:39;;;;;;;2.88;2.53;;;18.50;42.10;;;;;;6194636;23;20129;-86
2022/05/22 06:03:07;;;;;;;2.47;2.28;;;18.50;42.20;;;;;;6219735;23;20141;-86
2022/05/22 06:05:32;;;;;;;3.10;2.80;;;18.50;42.20;;;;;;6170376;23;20145;-86
2022/05/22 06:07:58;;;;;;;2.58;2.38;;;18.50;42.10;;;;;;6194494;23;20180;-86
2022/05/22 06:10:23;;;;;;;2.83;2.33;;;18.50;42.20;;;;;;6246275;23;20497;-87
2022/05/22 06:12:49;;;;;;;2.90;2.60;;;18.50;42.80;;;;;;6219610;23;20134;-86
2022/05/22 06:15:15;;;;;;;3.25;2.95;;;18.50;42.10;;;;;;6169760;23;20474;-86
2022/05/22 06:17:43;;;;;;;2.95;2.65;;;18.50;42.20;;;;;;6194155;23;20144;-86
2022/05/22 06:20:09;;;;;;;2.78;2.47;;;18.50;42.20;;;;;;6219310;23;20161;-86
2022/05/22 06:22:35;;;;;;;2.58;2.38;;;18.50;42.20;;;;;;6169794;23;20142;-86
2022/05/22 06:25:03;;;;;;;2.83;2.58;;;18.50;42.20;;;;;;6194298;23;20140;-86
2022/05/22 06:27:28;;;;;;;2.90;2.50;;;18.50;42.30;;;;;;6194676;23;20133;-86
2022/05/22 06:29:54;;;;;;;2.60;2.40;;;18.50;42.30;;;;;;6194194;23;20137;-86
2022/05/22 06:32:20;;;;;;;2.70;2.50;;;18.50;42.30;;;;;;6219129;23;20134;-86
2022/05/22 06:34:47;;;;;;;3.10;2.55;;;18.50;42.30;;;;;;6219232;23;20130;-86
2022/05/22 06:37:15;;;;;;;2.67;2.47;;;18.50;42.30;;;;;;6218875;23;20197;-86
2022/05/22 06:42:24;;;;;;;3.97;2.53;;;18.50;42.30;;;;;;6198628;23;20220;-86
2022/05/22 06:44:52;;;;;;;2.90;2.60;;;18.40;42.30;;;;;;6195271;23;20156;-86
2022/05/22 06:47:18;;;;;;;3.00;2.70;;;18.50;42.40;;;;;;6169807;23;20184;-86
2022/05/22 06:49:43;;;;;;;2.88;2.58;;;18.40;42.30;;;;;;6169260;23;20137;-86
2022/05/22 06:52:09;;;;;;;2.65;2.45;;;18.50;42.50;;;;;;6194959;23;20163;-86
2022/05/22 06:54:35;;;;;;;2.70;2.50;;;18.50;42.40;;;;;;6194524;23;20232;-86
2022/05/22 06:57:00;;;;;;;3.40;2.78;;;18.50;42.50;;;;;;6169940;23;20494;-86
2022/05/22 06:59:26;;;;;;;2.40;2.20;;;18.50;43.10;;;;;;6169641;23;20141;-86
2022/05/22 07:01:52;;;;;;;2.65;2.45;;;18.50;42.50;;;;;;6219845;23;20137;-86
2022/05/22 07:04:21;;;;;;;2.50;2.30;;;18.50;42.50;;;;;;6193824;23;20460;-86
2022/05/22 07:06:47;;;;;;;2.78;2.50;;;18.50;42.50;;;;;;6245732;23;20271;-86
2022/05/22 07:09:13;;;;;;;2.65;2.40;;;18.50;42.40;;;;;;6194474;23;20133;-86
2022/05/22 07:11:39;;;;;;;2.88;2.50;;;18.50;42.40;;;;;;6194391;23;20146;-86
2022/05/22 07:14:07;;;;;;;2.55;2.35;;;18.50;42.30;;;;;;6245988;23;20462;-85
2022/05/22 07:16:34;;;;;;;2.70;2.40;;;18.60;42.20;;;;;;6170282;23;20174;-86
2022/05/22 07:19:00;;;;;;;2.60;2.40;;;18.50;42.20;;;;;;6194278;23;20472;-86
2022/05/22 07:21:26;;;;;;;2.58;2.38;;;18.60;42.20;;;;;;6194198;23;20134;-86
2022/05/22 07:23:53;;;;;;;2.55;2.35;;;18.60;42.20;;;;;;6220666;23;20445;-86
2022/05/22 07:26:19;;;;;;;2.60;2.40;;;18.60;42.00;;;;;;6220752;23;20632;-86
2022/05/22 07:28:45;;;;;;;2.50;2.25;;;18.60;42.20;;;;;;6221536;23;20125;-86
2022/05/22 07:31:14;;;;;;;2.10;1.90;;;18.50;42.10;;;;;;6220858;23;20456;-87
2022/05/22 07:33:39;;;;;;;3.10;2.30;;;18.70;42.20;;;;;;6195938;23;20557;-87
2022/05/22 07:36:05;;;;;;;2.75;2.42;;;18.60;42.10;;;;;;6220356;23;20215;-86
2022/05/22 07:38:31;;;;;;;2.70;2.50;;;18.60;42.10;;;;;;6220645;23;20149;-86
2022/05/22 07:40:56;;;;;;;4.57;2.40;;;18.60;42.10;;;;;;6220983;23;20129;-87
2022/05/22 07:43:22;;;;;;;3.63;2.28;;;18.60;42.00;;;;;;6247763;23;20620;-86
2022/05/22 07:45:47;;;;;;;4.55;2.47;;;18.60;41.80;;;;;;6195750;23;20157;-86
2022/05/22 07:48:13;;;;;;;4.18;2.30;;;18.60;42.10;;;;;;6247413;23;20126;-85
2022/05/22 07:50:40;;;;;;;4.15;2.58;;;18.70;41.90;;;;;;6220469;23;20142;-85
2022/05/22 07:53:05;;;;;;;3.35;2.70;;;18.60;42.00;;;;;;6221879;23;20133;-85
2022/05/22 07:55:31;;;;;;;3.90;2.38;;;18.70;41.90;;;;;;6221402;23;20172;-85
2022/05/22 07:57:57;;;;;;;2.35;2.15;;;18.60;42.20;;;;;;6195946;23;20134;-85
2022/05/22 08:00:22;;;;;;;3.10;2.30;;;18.60;42.20;;;;;;6195645;23;20153;-85
2022/05/22 08:02:48;;;;;;;3.28;2.17;;;18.60;42.10;;;;;;6170600;23;20153;-85
2022/05/22 08:05:15;;;;;;;7.72;2.50;;;18.70;42.00;;;;;;6195402;23;20141;-85
2022/05/22 08:07:40;;;;;;;4.22;2.47;;;18.70;42.10;;;;;;6196124;23;20141;-85
2022/05/22 08:10:07;;;;;;;6.93;2.47;;;18.70;42.00;;;;;;6170881;23;20228;-85
2022/05/22 08:12:43;;;;;;;4.40;2.63;;;18.70;41.90;;;;;;6171515;23;20152;-85
2022/05/22 08:15:09;;;;;;;4.18;2.40;;;18.60;42.20;;;;;;6220877;23;20577;-85
2022/05/22 08:17:36;;;;;;;4.70;2.42;;;18.60;42.00;;;;;;6248122;23;20173;-86
2022/05/22 08:20:07;;;;;;;4.30;2.25;;;18.70;41.90;;;;;;6220944;23;20126;-85
2022/05/22 08:22:32;;;;;;;5.28;2.58;;;18.70;42.00;;;;;;6171922;23;20149;-85
2022/05/22 08:24:59;;;;;;;6.65;2.63;;;18.70;41.80;;;;;;6220818;23;20156;-85
2022/05/22 08:27:25;;;;;;;3.42;2.17;;;18.70;42.00;;;;;;6220499;23;20183;-85
2022/05/22 08:29:50;;;;;;;5.18;2.42;;;18.70;41.90;;;;;;6171517;23;20516;-85
2022/05/22 08:32:16;;;;;;;2.90;2.10;;;18.70;41.90;;;;;;6195239;23;20142;-85
2022/05/22 08:34:42;;;;;;;3.28;2.33;;;18.70;41.80;;;;;;6195754;23;20149;-85
2022/05/22 08:37:07;;;;;;;4.72;2.83;;;18.70;41.80;;;;;;6215297;23;20255;-85
2022/05/22 08:39:33;;;;;;;5.85;2.70;;;18.70;41.90;;;;;;6190204;23;20189;-85
2022/05/22 08:41:59;;;;;;;2.78;2.30;;;18.70;42.00;;;;;;6190763;23;20180;-85
2022/05/22 08:44:29;;;;;;;2.65;2.38;;;18.70;42.00;;;;;;6165865;23;20146;-85
2022/05/22 08:46:58;;;;;;;3.80;2.60;;;18.70;42.20;;;;;;6166446;23;20169;-85
2022/05/22 08:49:57;;;;;;;6.03;2.50;;;18.60;41.90;;;;;;6165304;23;20178;-85
2022/05/22 08:52:47;;;;;;;5.05;2.30;;;18.80;41.90;;;;;;6216494;23;20134;-85
2022/05/22 08:55:18;;;;;;;3.75;2.47;;;18.70;41.90;;;;;;6194239;23;20142;-85
2022/05/22 09:00:43;;;;;;;3.55;2.10;;;18.70;41.90;;;;;;6196070;23;20209;-85
2022/05/22 09:03:18;;;;;;;5.18;2.40;;;18.70;41.90;;;;;;6190453;23;20550;-85
2022/05/22 09:05:44;;;;;;;3.42;2.17;;;18.80;42.00;;;;;;6190223;23;20153;-85
2022/05/22 09:08:20;;;;;;;2.75;2.28;;;18.80;42.00;;;;;;6190088;23;20139;-86
2022/05/22 09:11:08;;;;;;;2.88;2.40;;;18.80;41.70;;;;;;6190967;23;20538;-85
2022/05/22 09:13:40;;;;;;;4.47;2.45;;;18.80;41.90;;;;;;6193379;23;20146;-85
2022/05/22 09:16:18;;;;;;;6.30;2.20;;;18.80;41.90;;;;;;6191447;23;20162;-85
2022/05/22 09:19:08;;;;;;;2.75;2.15;;;18.70;41.90;;;;;;6166327;23;20202;-85
2022/05/22 09:21:56;;;;;;;3.17;2.15;;;18.80;41.90;;;;;;6215455;23;20209;-85
2022/05/22 09:24:49;;;;;;;3.35;2.05;;;18.70;41.90;;;;;;6215639;23;20450;-86
2022/05/22 09:27:20;;;;;;;3.25;2.33;;;18.80;41.80;;;;;;6194013;23;20174;-86
2022/05/22 09:30:02;;;;;;;3.45;2.35;;;18.80;41.90;;;;;;6166184;23;20215;-85
2022/05/22 09:32:51;;;;;;;4.95;2.20;;;18.70;42.00;;;;;;6190342;23;20488;-85
2022/05/22 09:35:34;;;;;;;4.30;2.22;;;18.70;42.20;;;;;;6168708;23;20154;-85
2022/05/22 09:38:15;;;;;;;3.90;2.28;;;18.70;42.00;;;;;;6189991;23;20205;-85
2022/05/22 09:40:46;;;;;;;4.25;2.60;;;18.70;41.90;;;;;;6166890;23;20576;-85
2022/05/22 09:43:21;;;;;;;2.70;2.28;;;18.70;42.00;;;;;;6190452;23;20154;-86
2022/05/22 09:46:05;;;;;;;4.53;2.38;;;18.90;41.90;;;;;;6166424;23;20465;-85
2022/05/22 09:48:52;;;;;;;3.15;2.05;;;18.80;41.70;;;;;;6190011;23;20553;-85
2022/05/22 09:51:35;;;;;;;3.20;2.15;;;18.90;41.80;;;;;;6169093;23;20543;-85
2022/05/22 09:54:21;;;;;;;2.42;2.20;;;18.90;41.70;;;;;;6190765;23;20150;-85
2022/05/22 09:56:57;;;;;;;4.07;2.40;;;18.90;41.80;;;;;;6168014;23;20177;-85
2022/05/22 09:59:47;;;;;;;2.70;2.15;;;19.00;41.70;;;;;;6190533;23;20130;-85
2022/05/22 10:02:19;;;;;;;3.55;2.42;;;18.90;41.70;;;;;;6214886;23;20641;-86
2022/05/22 10:04:56;;;;;;;2.47;2.10;;;19.00;41.70;;;;;;6166149;23;20234;-85
2022/05/22 10:07:31;;;;;;;2.70;2.30;;;18.90;41.40;;;;;;6215732;23;20144;-86
2022/05/22 10:10:03;;;;;;;3.25;2.17;;;18.90;41.70;;;;;;6195408;23;20137;-85
2022/05/22 10:12:46;;;;;;;3.78;2.40;;;18.90;41.30;;;;;;6194478;23;20138;-87
2022/05/22 10:15:51;;;;;;;3.60;2.30;;;18.90;41.70;;;;;;6194114;23;20150;-85
2022/05/22 10:18:24;;;;;;;5.25;2.35;;;18.90;41.50;;;;;;6218859;23;20582;-86
2022/05/22 10:21:17;;;;;;;4.43;2.20;;;19.00;41.60;;;;;;6194478;23;20156;-86
2022/05/22 10:24:01;;;;;;;2.90;2.47;;;19.00;41.40;;;;;;6217665;23;20180;-85
2022/05/22 10:26:47;;;;;;;3.28;2.33;;;18.90;41.50;;;;;;6221801;23;20161;-86
2022/05/22 10:29:28;;;;;;;2.35;2.10;;;18.90;41.50;;;;;;6220631;23;20134;-85
2022/05/22 10:32:00;;;;;;;2.45;2.22;;;18.90;41.70;;;;;;6219733;23;20157;-86
2022/05/22 10:34:38;;;;;;;2.58;2.20;;;18.90;41.50;;;;;;6195072;23;20131;-86
2022/05/22 10:37:12;;;;;;;2.33;2.13;;;19.00;41.30;;;;;;6190834;23;20713;-86
2022/05/22 10:39:37;;;;;;;2.72;2.15;;;19.00;41.40;;;;;;6190202;23;20663;-86
2022/05/22 10:45:05;;;;;;;2.67;2.05;;;18.90;41.40;;;;;;6194374;23;20138;-86
2022/05/22 10:47:32;;;;;;;2.47;2.13;;;18.90;41.30;;;;;;6168345;23;20153;-86
2022/05/22 10:49:59;;;;;;;3.72;2.10;;;18.90;41.30;;;;;;6192045;23;20558;-87
2022/05/22 10:52:30;;;;;;;2.40;2.15;;;18.90;41.20;;;;;;6217058;23;20141;-86
2022/05/22 10:54:55;;;;;;;2.30;2.00;;;18.90;41.00;;;;;;6168301;23;20146;-84
2022/05/22 10:57:23;;;;;;;2.38;2.15;;;18.90;40.90;;;;;;6218150;23;20162;-86
2022/05/22 10:59:49;;;;;;;3.42;2.22;;;19.00;41.20;;;;;;6168931;23;20173;-86
2022/05/22 11:02:18;;;;;;;2.47;2.10;;;18.90;41.00;;;;;;6168938;23;20154;-86
2022/05/22 11:04:44;;;;;;;2.13;1.92;;;19.00;40.90;;;;;;6218126;23;20134;-86
2022/05/22 11:07:10;;;;;;;2.20;2.00;;;18.90;41.00;;;;;;6168859;23;20589;-86
2022/05/22 11:09:51;;;;;;;2.42;2.22;;;18.90;40.70;;;;;;6169278;23;20154;-85
2022/05/22 11:12:26;;;;;;;2.75;2.20;;;18.90;40.80;;;;;;6218631;23;20164;-85
2022/05/22 11:15:05;;;;;;;2.63;2.08;;;19.00;40.90;;;;;;6194179;23;20130;-86
2022/05/22 11:17:31;;;;;;;2.13;1.92;;;18.90;40.90;;;;;;6194636;23;20219;-86
2022/05/22 11:19:57;;;;;;;2.47;2.22;;;18.90;40.80;;;;;;6168920;23;20524;-86
2022/05/22 11:22:37;;;;;;;3.08;2.17;;;18.90;40.80;;;;;;6166943;23;20146;-85
2022/05/22 11:25:22;;;;;;;2.25;2.05;;;19.00;40.60;;;;;;6216796;23;20161;-86
2022/05/22 11:28:14;;;;;;;2.30;2.10;;;19.00;40.70;;;;;;6196142;23;20155;-85
2022/05/22 11:30:55;;;;;;;2.58;2.17;;;19.00;40.80;;;;;;6169925;23;20454;-86
2022/05/22 11:33:46;;;;;;;2.53;2.33;;;19.00;40.70;;;;;;6216710;23;20134;-85
2022/05/22 11:36:31;;;;;;;2.63;2.20;;;19.00;40.80;;;;;;6196087;23;20629;-85
2022/05/22 11:39:22;;;;;;;3.35;2.22;;;19.00;40.80;;;;;;6193172;23;20233;-86
2022/05/22 11:41:52;;;;;;;2.85;2.50;;;19.00;40.60;;;;;;6194990;23;20173;-86
2022/05/22 11:44:44;;;;;;;3.67;2.03;;;19.00;40.70;;;;;;6216991;23;20534;-86
2022/05/22 11:47:44;;;;;;;2.38;2.08;;;19.00;40.80;;;;;;6196021;23;20146;-85
2022/05/22 11:50:35;;;;;;;2.40;2.15;;;19.00;40.70;;;;;;6217798;23;20162;-86
2022/05/22 11:53:25;;;;;;;3.00;1.90;;;19.00;40.50;;;;;;6195358;23;20225;-86
2022/05/22 11:56:13;;;;;;;2.35;2.10;;;19.00;40.50;;;;;;6195668;23;20205;-85
2022/05/22 11:58:45;;;;;;;2.50;2.30;;;19.00;40.60;;;;;;6216766;23;20134;-87
2022/05/22 12:01:27;;;;;;;2.58;2.15;;;19.10;40.70;;;;;;6167119;23;20238;-86
2022/05/22 12:04:15;;;;;;;2.38;2.17;;;19.10;40.50;;;;;;6216535;23;20206;-85
2022/05/22 12:06:55;;;;;;;2.22;2.03;;;19.10;40.50;;;;;;6217484;23;20181;-86
2022/05/22 12:09:45;;;;;;;2.97;2.35;;;19.10;40.50;;;;;;6193409;23;20207;-86
2022/05/22 12:12:35;;;;;;;2.53;1.92;;;19.00;40.40;;;;;;6216170;23;20557;-86
2022/05/22 12:15:26;;;;;;;1.90;1.80;;;19.00;40.50;;;;;;6195379;23;20130;-85
2022/05/22 12:18:06;;;;;;;3.38;2.40;;;19.00;40.50;;;;;;6216224;23;20138;-86
2022/05/22 12:20:46;;;;;;;2.92;2.33;;;19.00;40.50;;;;;;6192618;23;20139;-85
2022/05/22 12:23:27;;;;;;;2.88;2.17;;;19.00;40.40;;;;;;6193691;23;20609;-85
2022/05/22 12:25:56;;;;;;;2.63;2.22;;;19.10;40.50;;;;;;6216047;23;20134;-86
2022/05/22 12:28:36;;;;;;;2.50;2.20;;;19.00;40.40;;;;;;6190721;23;20442;-85
2022/05/22 12:31:04;;;;;;;3.70;2.60;;;19.00;40.40;;;;;;6190536;23;20142;-86
2022/05/22 12:33:32;;;;;;;2.22;2.03;;;19.00;40.50;;;;;;6215942;23;20138;-86
2022/05/22 12:35:58;;;;;;;2.40;2.03;;;18.90;40.40;;;;;;6217958;23;20166;-85
2022/05/22 12:38:23;;;;;;;2.85;2.30;;;19.00;40.30;;;;;;6195991;23;20164;-86
2022/05/22 12:41:12;;;;;;;2.47;2.08;;;19.00;40.30;;;;;;6195659;23;20140;-86
2022/05/22 12:43:38;;;;;;;3.03;2.22;;;19.10;40.00;;;;;;6172195;23;20236;-85
2022/05/22 12:46:04;;;;;;;4.55;2.20;;;19.10;40.10;;;;;;6195142;23;20165;-86
2022/05/22 12:48:43;;;;;;;2.45;2.10;;;19.10;40.00;;;;;;6195212;23;20216;-86
2022/05/22 12:51:18;;;;;;;3.00;2.08;;;19.00;39.80;;;;;;6170759;23;20161;-87
2022/05/22 12:53:46;;;;;;;2.25;2.05;;;19.00;39.80;;;;;;6194948;23;20133;-86
2022/05/22 12:56:37;;;;;;;2.50;2.28;;;19.10;39.60;;;;;;6170250;23;20181;-85
2022/05/22 12:59:05;;;;;;;3.38;2.10;;;19.00;39.80;;;;;;6195065;23;20623;-86
2022/05/22 13:01:39;;;;;;;2.55;2.20;;;19.10;40.00;;;;;;6195485;23;20133;-86
2022/05/22 13:04:20;;;;;;;2.30;2.10;;;19.10;39.50;;;;;;6194661;23;20129;-86
2022/05/22 13:07:11;;;;;;;2.38;2.05;;;19.10;39.30;;;;;;6219874;23;20160;-85
2022/05/22 13:09:41;;;;;;;2.50;2.10;;;19.10;39.60;;;;;;6200679;23;20129;-85
2022/05/22 13:12:30;;;;;;;2.95;2.08;;;19.00;39.60;;;;;;6220535;23;20577;-85
2022/05/22 13:15:00;;;;;;;2.50;2.30;;;19.00;39.70;;;;;;6174346;23;20142;-86
2022/05/22 13:17:40;;;;;;;2.42;2.20;;;19.10;39.70;;;;;;6170427;23;20207;-86
2022/05/22 13:20:09;;;;;;;3.22;2.40;;;19.10;39.60;;;;;;6196237;23;20129;-86